sensor_id;sensor_type;location;lat;lon;timestamp;pressure;altitude;pressure_sealevel;temperature;humidity
5126;BME280;63008;53.112;8.896;2023-06-04T00:00:44;102215.41;;;11.80;71.70
5126;BME280;63008;53.112;8.896;2023-06-04T00:02:45;102214.78;;;11.69;72.26
5126;BME280;63008;53.112;8.896;2023-06-04T00:04:46;102208.97;;;11.57;72.87
5126;BME280;63008;53.112;8.896;2023-06-04T00:06:47;102210.69;;;11.53;73.46
5126;BME280;63008;53.112;8.896;2023-06-04T00:08:48;102214.16;;;11.59;73.36
5126;BME280;63008;53.112;8.896;2023-06-04T00:10:49;102215.78;;;11.60;73.20
5126;BME280;63008;53.112;8.896;2023-06-04T00:12:50;102203.78;;;11.56;73.33
5126;BME280;63008;53.112;8.896;2023-06-04T00:14:51;102217.22;;;11.57;73.51
5126;BME280;63008;53.112;8.896;2023-06-04T00:16:52;102213.91;;;11.42;73.90
5126;BME280;63008;53.112;8.896;2023-06-04T00:18:53;102212.38;;;11.22;74.86
5126;BME280;63008;53.112;8.896;2023-06-04T00:20:54;102209.28;;;11.10;75.43
5126;BME280;63008;53.112;8.896;2023-06-04T00:22:55;102212.03;;;11.10;75.62
5126;BME280;63008;53.112;8.896;2023-06-04T00:24:56;102206.81;;;11.09;75.77
5126;BME280;63008;53.112;8.896;2023-06-04T00:26:57;102214.53;;;11.07;75.71
5126;BME280;63008;53.112;8.896;2023-06-04T00:28:58;102208.53;;;11.05;75.80
5126;BME280;63008;53.112;8.896;2023-06-04T00:30:59;102206.50;;;10.97;76.05
5126;BME280;63008;53.112;8.896;2023-06-04T00:33:01;102209.19;;;10.84;76.93
5126;BME280;63008;53.112;8.896;2023-06-04T00:35:02;102209.88;;;10.76;77.60
5126;BME280;63008;53.112;8.896;2023-06-04T00:37:03;102207.03;;;10.81;77.35
5126;BME280;63008;53.112;8.896;2023-06-04T00:39:04;102219.50;;;10.73;77.65
5126;BME280;63008;53.112;8.896;2023-06-04T00:41:05;102205.06;;;10.68;78.10
5126;BME280;63008;53.112;8.896;2023-06-04T00:43:06;102212.41;;;10.54;79.00
5126;BME280;63008;53.112;8.896;2023-06-04T00:45:08;102213.97;;;10.41;79.72
5126;BME280;63008;53.112;8.896;2023-06-04T00:47:14;102206.91;;;10.35;80.00
5126;BME280;63008;53.112;8.896;2023-06-04T00:49:16;102208.25;;;10.38;79.87
5126;BME280;63008;53.112;8.896;2023-06-04T00:51:17;102206.31;;;10.38;79.95
5126;BME280;63008;53.112;8.896;2023-06-04T00:53:18;102208.53;;;10.36;80.14
5126;BME280;63008;53.112;8.896;2023-06-04T00:55:20;102207.91;;;10.44;80.04
5126;BME280;63008;53.112;8.896;2023-06-04T00:57:22;102216.13;;;10.44;79.81
5126;BME280;63008;53.112;8.896;2023-06-04T00:59:23;102212.72;;;10.34;80.30
5126;BME280;63008;53.112;8.896;2023-06-04T01:01:42;102206.47;;;10.28;80.49
5126;BME280;63008;53.112;8.896;2023-06-04T01:03:49;102209.81;;;10.25;80.65
5126;BME280;63008;53.112;8.896;2023-06-04T01:06:24;102209.81;;;10.25;80.94
5126;BME280;63008;53.112;8.896;2023-06-04T01:08:29;102207.34;;;10.24;81.00
5126;BME280;63008;53.112;8.896;2023-06-04T01:10:31;102219.53;;;10.18;81.29
5126;BME280;63008;53.112;8.896;2023-06-04T01:12:32;102212.75;;;10.10;81.87
5126;BME280;63008;53.112;8.896;2023-06-04T01:14:33;102210.31;;;10.09;81.90
5126;BME280;63008;53.112;8.896;2023-06-04T01:18:42;102210.94;;;10.01;82.43
5126;BME280;63008;53.112;8.896;2023-06-04T01:20:46;102206.91;;;9.93;82.90
5126;BME280;63008;53.112;8.896;2023-06-04T01:24:55;102206.50;;;9.81;83.42
5126;BME280;63008;53.112;8.896;2023-06-04T01:26:57;102208.66;;;9.84;83.71
5126;BME280;63008;53.112;8.896;2023-06-04T01:28:58;102210.28;;;9.85;83.64
5126;BME280;63008;53.112;8.896;2023-06-04T01:31:03;102206.50;;;9.81;83.89
5126;BME280;63008;53.112;8.896;2023-06-04T01:33:04;102213.94;;;9.81;83.83
5126;BME280;63008;53.112;8.896;2023-06-04T01:35:08;102212.00;;;9.81;83.86
5126;BME280;63008;53.112;8.896;2023-06-04T01:37:09;102212.59;;;9.78;83.97
5126;BME280;63008;53.112;8.896;2023-06-04T01:39:12;102214.75;;;9.58;84.80
5126;BME280;63008;53.112;8.896;2023-06-04T01:41:13;102208.56;;;9.47;85.69
5126;BME280;63008;53.112;8.896;2023-06-04T01:43:14;102211.88;;;9.44;85.77
5126;BME280;63008;53.112;8.896;2023-06-04T01:45:15;102214.03;;;9.47;85.98
5126;BME280;63008;53.112;8.896;2023-06-04T01:47:16;102206.97;;;9.41;86.40
5126;BME280;63008;53.112;8.896;2023-06-04T01:49:17;102206.84;;;9.28;87.19
5126;BME280;63008;53.112;8.896;2023-06-04T01:51:18;102199.63;;;9.37;86.99
5126;BME280;63008;53.112;8.896;2023-06-04T01:53:19;102204.00;;;9.38;86.82
5126;BME280;63008;53.112;8.896;2023-06-04T01:55:20;102208.91;;;9.41;86.79
5126;BME280;63008;53.112;8.896;2023-06-04T01:57:21;102200.97;;;9.39;86.71
5126;BME280;63008;53.112;8.896;2023-06-04T01:59:22;102210.31;;;9.38;86.77
5126;BME280;63008;53.112;8.896;2023-06-04T02:01:23;102203.53;;;9.31;86.98
5126;BME280;63008;53.112;8.896;2023-06-04T02:03:24;102206.63;;;9.24;87.62
5126;BME280;63008;53.112;8.896;2023-06-04T02:05:26;102208.25;;;9.25;87.77
5126;BME280;63008;53.112;8.896;2023-06-04T02:07:27;102207.72;;;9.23;87.79
5126;BME280;63008;53.112;8.896;2023-06-04T02:09:28;102215.28;;;9.08;88.54
5126;BME280;63008;53.112;8.896;2023-06-04T02:11:29;102202.97;;;9.05;89.05
5126;BME280;63008;53.112;8.896;2023-06-04T02:13:30;102216.41;;;9.02;89.01
5126;BME280;63008;53.112;8.896;2023-06-04T02:15:32;102213.28;;;9.13;88.92
5126;BME280;63008;53.112;8.896;2023-06-04T02:17:33;102212.38;;;8.95;89.63
5126;BME280;63008;53.112;8.896;2023-06-04T02:19:42;102216.22;;;8.94;90.28
5126;BME280;63008;53.112;8.896;2023-06-04T02:21:50;102215.94;;;8.95;89.81
5126;BME280;63008;53.112;8.896;2023-06-04T02:23:51;102214.03;;;8.91;90.08
5126;BME280;63008;53.112;8.896;2023-06-04T02:25:52;102210.00;;;8.83;90.49
5126;BME280;63008;53.112;8.896;2023-06-04T02:27:53;102214.94;;;8.81;90.95
5126;BME280;63008;53.112;8.896;2023-06-04T02:29:54;102208.38;;;8.82;90.87
5126;BME280;63008;53.112;8.896;2023-06-04T02:31:55;102202.94;;;8.77;91.24
5126;BME280;63008;53.112;8.896;2023-06-04T02:33:56;102204.28;;;8.80;91.17
5126;BME280;63008;53.112;8.896;2023-06-04T02:35:57;102208.66;;;8.81;90.94
5126;BME280;63008;53.112;8.896;2023-06-04T02:37:58;102211.94;;;8.83;90.73
5126;BME280;63008;53.112;8.896;2023-06-04T02:39:59;102217.41;;;8.83;90.80
5126;BME280;63008;53.112;8.896;2023-06-04T02:42:00;102209.78;;;8.75;91.13
5126;BME280;63008;53.112;8.896;2023-06-04T02:44:01;102215.19;;;8.85;90.72
5126;BME280;63008;53.112;8.896;2023-06-04T02:46:02;102212.47;;;8.85;90.68
5126;BME280;63008;53.112;8.896;2023-06-04T02:48:03;102211.34;;;8.86;90.24
5126;BME280;63008;53.112;8.896;2023-06-04T02:50:04;102216.53;;;8.87;90.27
5126;BME280;63008;53.112;8.896;2023-06-04T02:52:06;102214.63;;;8.88;90.43
5126;BME280;63008;53.112;8.896;2023-06-04T02:54:07;102214.28;;;8.94;90.28
5126;BME280;63008;53.112;8.896;2023-06-04T02:56:08;102218.94;;;8.94;90.37
5126;BME280;63008;53.112;8.896;2023-06-04T02:58:09;102217.41;;;8.83;90.46
5126;BME280;63008;53.112;8.896;2023-06-04T03:00:14;102221.19;;;8.87;90.68
5126;BME280;63008;53.112;8.896;2023-06-04T03:02:17;102224.53;;;8.79;91.01
5126;BME280;63008;53.112;8.896;2023-06-04T03:04:18;102220.22;;;8.73;91.15
5126;BME280;63008;53.112;8.896;2023-06-04T03:06:22;102227.41;;;8.64;91.89
5126;BME280;63008;53.112;8.896;2023-06-04T03:08:23;102218.13;;;8.60;92.11
5126;BME280;63008;53.112;8.896;2023-06-04T03:10:24;102225.00;;;8.52;92.73
5126;BME280;63008;53.112;8.896;2023-06-04T03:12:25;102222.28;;;8.52;92.57
5126;BME280;63008;53.112;8.896;2023-06-04T03:14:26;102221.22;;;8.48;92.82
5126;BME280;63008;53.112;8.896;2023-06-04T03:16:32;102219.84;;;8.51;92.80
5126;BME280;63008;53.112;8.896;2023-06-04T03:18:33;102226.38;;;8.55;92.58
5126;BME280;63008;53.112;8.896;2023-06-04T03:20:34;102225.22;;;8.61;92.28
5126;BME280;63008;53.112;8.896;2023-06-04T03:22:38;102221.09;;;8.63;92.07
5126;BME280;63008;53.112;8.896;2023-06-04T03:24:40;102220.31;;;8.58;91.96
5126;BME280;63008;53.112;8.896;2023-06-04T03:26:41;102211.59;;;8.56;92.14
5126;BME280;63008;53.112;8.896;2023-06-04T03:28:45;102222.84;;;8.49;92.70
5126;BME280;63008;53.112;8.896;2023-06-04T03:30:46;102217.69;;;8.43;92.86
5126;BME280;63008;53.112;8.896;2023-06-04T03:32:47;102213.38;;;8.32;93.75
5126;BME280;63008;53.112;8.896;2023-06-04T03:34:48;102221.06;;;8.30;94.06
5126;BME280;63008;53.112;8.896;2023-06-04T03:36:49;102214.75;;;8.29;94.09
5126;BME280;63008;53.112;8.896;2023-06-04T03:38:50;102221.59;;;8.32;94.02
5126;BME280;63008;53.112;8.896;2023-06-04T03:40:51;102223.75;;;8.35;93.82
5126;BME280;63008;53.112;8.896;2023-06-04T03:42:53;102215.50;;;8.40;93.68
5126;BME280;63008;53.112;8.896;2023-06-04T03:44:54;102218.78;;;8.47;93.65
5126;BME280;63008;53.112;8.896;2023-06-04T03:46:55;102222.56;;;8.51;93.37
5126;BME280;63008;53.112;8.896;2023-06-04T03:48:56;102229.41;;;8.48;93.20
5126;BME280;63008;53.112;8.896;2023-06-04T03:50:57;102223.66;;;8.50;93.33
5126;BME280;63008;53.112;8.896;2023-06-04T03:52:58;102224.16;;;8.57;93.06
5126;BME280;63008;53.112;8.896;2023-06-04T03:54:59;102221.94;;;8.59;92.89
5126;BME280;63008;53.112;8.896;2023-06-04T03:57:00;102215.41;;;8.55;92.99
5126;BME280;63008;53.112;8.896;2023-06-04T03:59:03;102219.19;;;8.64;92.87
5126;BME280;63008;53.112;8.896;2023-06-04T04:01:04;102207.38;;;8.68;92.63
5126;BME280;63008;53.112;8.896;2023-06-04T04:03:06;102213.38;;;8.75;92.42
5126;BME280;63008;53.112;8.896;2023-06-04T04:05:08;102206.25;;;8.74;91.97
5126;BME280;63008;53.112;8.896;2023-06-04T04:07:12;102215.31;;;8.70;92.24
5126;BME280;63008;53.112;8.896;2023-06-04T04:09:13;102207.16;;;8.65;92.66
5126;BME280;63008;53.112;8.896;2023-06-04T04:11:15;102206.84;;;8.66;92.83
5126;BME280;63008;53.112;8.896;2023-06-04T04:13:16;102211.47;;;8.71;92.46
5126;BME280;63008;53.112;8.896;2023-06-04T04:15:17;102209.00;;;8.74;92.30
5126;BME280;63008;53.112;8.896;2023-06-04T04:17:18;102209.53;;;8.76;92.66
5126;BME280;63008;53.112;8.896;2023-06-04T04:19:19;102204.03;;;8.76;92.93
5126;BME280;63008;53.112;8.896;2023-06-04T04:21:21;102207.25;;;8.83;92.78
5126;BME280;63008;53.112;8.896;2023-06-04T04:23:22;102203.16;;;8.86;92.96
5126;BME280;63008;53.112;8.896;2023-06-04T04:25:24;102201.47;;;8.90;92.77
5126;BME280;63008;53.112;8.896;2023-06-04T04:27:25;102205.78;;;8.96;93.00
5126;BME280;63008;53.112;8.896;2023-06-04T04:29:26;102205.78;;;8.96;92.88
5126;BME280;63008;53.112;8.896;2023-06-04T04:31:28;102209.03;;;9.02;92.65
5126;BME280;63008;53.112;8.896;2023-06-04T04:33:29;102201.59;;;9.08;92.10
5126;BME280;63008;53.112;8.896;2023-06-04T04:35:33;102206.75;;;9.09;92.19
5126;BME280;63008;53.112;8.896;2023-06-04T04:37:35;102205.06;;;9.13;91.95
5126;BME280;63008;53.112;8.896;2023-06-04T04:39:39;102211.03;;;9.20;91.63
5126;BME280;63008;53.112;8.896;2023-06-04T04:41:40;102212.16;;;9.19;91.49
5126;BME280;63008;53.112;8.896;2023-06-04T04:43:41;102205.97;;;9.32;91.82
5126;BME280;63008;53.112;8.896;2023-06-04T04:45:42;102203.66;;;9.44;90.92
5126;BME280;63008;53.112;8.896;2023-06-04T04:47:43;102207.44;;;9.48;90.82
5126;BME280;63008;53.112;8.896;2023-06-04T04:49:45;102210.44;;;9.52;90.69
5126;BME280;63008;53.112;8.896;2023-06-04T04:51:46;102213.09;;;9.57;90.45
5126;BME280;63008;53.112;8.896;2023-06-04T04:53:47;102217.66;;;9.66;90.29
5126;BME280;63008;53.112;8.896;2023-06-04T04:55:48;102211.81;;;9.73;90.31
5126;BME280;63008;53.112;8.896;2023-06-04T04:57:49;102219.63;;;9.84;90.44
5126;BME280;63008;53.112;8.896;2023-06-04T04:59:51;102211.88;;;9.91;90.22
5126;BME280;63008;53.112;8.896;2023-06-04T05:01:51;102213.94;;;10.04;89.98
5126;BME280;63008;53.112;8.896;2023-06-04T05:03:52;102216.84;;;10.13;89.75
5126;BME280;63008;53.112;8.896;2023-06-04T05:05:53;102215.22;;;10.30;88.95
5126;BME280;63008;53.112;8.896;2023-06-04T05:07:54;102216.13;;;10.44;87.90
5126;BME280;63008;53.112;8.896;2023-06-04T05:09:55;102211.91;;;10.52;87.39
5126;BME280;63008;53.112;8.896;2023-06-04T05:11:56;102208.97;;;10.62;86.96
5126;BME280;63008;53.112;8.896;2023-06-04T05:13:58;102207.44;;;10.74;86.68
5126;BME280;63008;53.112;8.896;2023-06-04T05:15:59;102207.53;;;10.82;86.08
5126;BME280;63008;53.112;8.896;2023-06-04T05:18:00;102215.84;;;10.96;85.71
5126;BME280;63008;53.112;8.896;2023-06-04T05:20:01;102223.41;;;11.04;85.73
5126;BME280;63008;53.112;8.896;2023-06-04T05:22:05;102218.03;;;11.12;85.35
5126;BME280;63008;53.112;8.896;2023-06-04T05:24:06;102219.09;;;11.30;85.34
5126;BME280;63008;53.112;8.896;2023-06-04T05:26:07;102219.41;;;11.42;84.78
5126;BME280;63008;53.112;8.896;2023-06-04T05:28:08;102224.22;;;11.50;83.21
5126;BME280;63008;53.112;8.896;2023-06-04T05:30:10;102226.78;;;11.60;83.17
5126;BME280;63008;53.112;8.896;2023-06-04T05:32:11;102229.88;;;11.72;82.90
5126;BME280;63008;53.112;8.896;2023-06-04T05:34:12;102226.41;;;11.80;82.50
5126;BME280;63008;53.112;8.896;2023-06-04T05:36:17;102231.09;;;11.93;82.22
5126;BME280;63008;53.112;8.896;2023-06-04T05:38:18;102231.38;;;12.05;81.82
5126;BME280;63008;53.112;8.896;2023-06-04T05:40:21;102227.59;;;12.14;81.19
5126;BME280;63008;53.112;8.896;2023-06-04T05:42:22;102234.63;;;12.20;80.70
5126;BME280;63008;53.112;8.896;2023-06-04T05:44:24;102231.97;;;12.29;79.74
5126;BME280;63008;53.112;8.896;2023-06-04T05:46:25;102242.25;;;12.37;79.79
5126;BME280;63008;53.112;8.896;2023-06-04T05:48:26;102234.38;;;12.44;79.88
5126;BME280;63008;53.112;8.896;2023-06-04T05:50:28;102233.13;;;12.50;78.46
5126;BME280;63008;53.112;8.896;2023-06-04T05:52:29;102238.41;;;12.60;78.07
5126;BME280;63008;53.112;8.896;2023-06-04T05:54:30;102237.78;;;12.63;78.46
5126;BME280;63008;53.112;8.896;2023-06-04T05:56:30;102244.00;;;12.68;77.72
5126;BME280;63008;53.112;8.896;2023-06-04T05:58:34;102250.28;;;12.82;76.75
5126;BME280;63008;53.112;8.896;2023-06-04T06:00:35;102241.69;;;12.97;76.23
5126;BME280;63008;53.112;8.896;2023-06-04T06:02:36;102247.56;;;13.04;75.78
5126;BME280;63008;53.112;8.896;2023-06-04T06:04:39;102245.69;;;13.13;75.82
5126;BME280;63008;53.112;8.896;2023-06-04T06:06:40;102242.09;;;13.12;74.95
5126;BME280;63008;53.112;8.896;2023-06-04T06:08:44;102256.44;;;13.23;75.10
5126;BME280;63008;53.112;8.896;2023-06-04T06:10:45;102254.69;;;13.27;74.38
5126;BME280;63008;53.112;8.896;2023-06-04T06:12:46;102262.72;;;13.37;73.65
5126;BME280;63008;53.112;8.896;2023-06-04T06:14:47;102258.69;;;13.43;72.63
5126;BME280;63008;53.112;8.896;2023-06-04T06:16:49;102254.53;;;13.54;72.56
5126;BME280;63008;53.112;8.896;2023-06-04T06:18:50;102250.84;;;13.58;72.39
5126;BME280;63008;53.112;8.896;2023-06-04T06:20:51;102255.91;;;13.65;71.57
5126;BME280;63008;53.112;8.896;2023-06-04T06:22:52;102256.25;;;13.72;71.31
5126;BME280;63008;53.112;8.896;2023-06-04T06:24:53;102250.75;;;13.80;70.73
5126;BME280;63008;53.112;8.896;2023-06-04T06:26:54;102255.31;;;13.76;68.68
5126;BME280;63008;53.112;8.896;2023-06-04T06:28:55;102260.19;;;13.79;69.42
5126;BME280;63008;53.112;8.896;2023-06-04T06:30:56;102254.88;;;13.91;70.17
5126;BME280;63008;53.112;8.896;2023-06-04T06:32:57;102250.19;;;14.00;68.89
5126;BME280;63008;53.112;8.896;2023-06-04T06:34:58;102252.16;;;14.08;68.36
5126;BME280;63008;53.112;8.896;2023-06-04T06:36:59;102261.94;;;14.14;68.87
5126;BME280;63008;53.112;8.896;2023-06-04T06:39:00;102260.66;;;14.20;67.47
5126;BME280;63008;53.112;8.896;2023-06-04T06:41:01;102261.53;;;14.29;67.66
5126;BME280;63008;53.112;8.896;2023-06-04T06:43:02;102248.06;;;14.45;66.77
5126;BME280;63008;53.112;8.896;2023-06-04T06:45:04;102259.13;;;14.53;65.44
5126;BME280;63008;53.112;8.896;2023-06-04T06:47:05;102263.69;;;14.58;66.04
5126;BME280;63008;53.112;8.896;2023-06-04T06:49:06;102256.84;;;14.63;65.77
5126;BME280;63008;53.112;8.896;2023-06-04T06:51:07;102262.72;;;14.70;65.62
5126;BME280;63008;53.112;8.896;2023-06-04T06:53:08;102251.66;;;14.70;63.54
5126;BME280;63008;53.112;8.896;2023-06-04T06:55:09;102256.69;;;14.77;63.21
5126;BME280;63008;53.112;8.896;2023-06-04T06:57:10;102262.06;;;14.82;63.00
5126;BME280;63008;53.112;8.896;2023-06-04T06:59:11;102259.31;;;14.82;62.80
5126;BME280;63008;53.112;8.896;2023-06-04T07:01:12;102255.06;;;14.93;63.34
5126;BME280;63008;53.112;8.896;2023-06-04T07:03:13;102264.66;;;15.04;62.88
5126;BME280;63008;53.112;8.896;2023-06-04T07:05:14;102265.81;;;15.11;62.55
5126;BME280;63008;53.112;8.896;2023-06-04T07:07:17;102267.06;;;15.14;62.08
5126;BME280;63008;53.112;8.896;2023-06-04T07:09:18;102265.28;;;15.26;62.55
5126;BME280;63008;53.112;8.896;2023-06-04T07:11:19;102270.19;;;15.38;62.21
5126;BME280;63008;53.112;8.896;2023-06-04T07:13:20;102273.91;;;15.50;61.78
5126;BME280;63008;53.112;8.896;2023-06-04T07:15:21;102273.41;;;15.57;59.91
5126;BME280;63008;53.112;8.896;2023-06-04T07:17:22;102272.56;;;15.56;59.68
5126;BME280;63008;53.112;8.896;2023-06-04T07:19:23;102277.13;;;15.61;59.89
5126;BME280;63008;53.112;8.896;2023-06-04T07:21:24;102266.91;;;15.53;59.85
5126;BME280;63008;53.112;8.896;2023-06-04T07:23:25;102271.59;;;15.61;60.91
5126;BME280;63008;53.112;8.896;2023-06-04T07:25:26;102269.63;;;15.70;58.15
5126;BME280;63008;53.112;8.896;2023-06-04T07:27:27;102267.63;;;15.79;58.48
5126;BME280;63008;53.112;8.896;2023-06-04T07:29:28;102275.69;;;15.92;59.62
5126;BME280;63008;53.112;8.896;2023-06-04T07:31:29;102281.72;;;16.03;58.64
5126;BME280;63008;53.112;8.896;2023-06-04T07:33:30;102279.03;;;16.15;58.51
5126;BME280;63008;53.112;8.896;2023-06-04T07:35:31;102273.91;;;16.25;58.47
5126;BME280;63008;53.112;8.896;2023-06-04T07:37:32;102279.41;;;16.34;59.93
5126;BME280;63008;53.112;8.896;2023-06-04T07:39:36;102263.09;;;16.41;59.37
5126;BME280;63008;53.112;8.896;2023-06-04T07:41:37;102274.38;;;16.36;58.18
5126;BME280;63008;53.112;8.896;2023-06-04T07:43:38;102270.13;;;16.38;57.33
5126;BME280;63008;53.112;8.896;2023-06-04T07:45:39;102270.69;;;16.52;56.95
5126;BME280;63008;53.112;8.896;2023-06-04T07:47:40;102273.94;;;16.54;56.09
5126;BME280;63008;53.112;8.896;2023-06-04T07:49:41;102255.63;;;16.61;56.86
5126;BME280;63008;53.112;8.896;2023-06-04T07:51:42;102260.09;;;16.74;57.65
5126;BME280;63008;53.112;8.896;2023-06-04T07:53:43;102267.38;;;16.79;55.63
5126;BME280;63008;53.112;8.896;2023-06-04T07:55:45;102264.81;;;16.74;55.38
5126;BME280;63008;53.112;8.896;2023-06-04T07:57:46;102264.59;;;16.79;55.00
5126;BME280;63008;53.112;8.896;2023-06-04T07:59:47;102261.22;;;16.94;54.40
5126;BME280;63008;53.112;8.896;2023-06-04T08:01:49;102255.38;;;17.07;53.58
5126;BME280;63008;53.112;8.896;2023-06-04T08:03:51;102258.91;;;17.16;52.67
5126;BME280;63008;53.112;8.896;2023-06-04T08:05:52;102254.06;;;17.25;53.28
5126;BME280;63008;53.112;8.896;2023-06-04T08:07:53;102266.41;;;17.36;52.21
5126;BME280;63008;53.112;8.896;2023-06-04T08:09:54;102258.91;;;17.49;51.84
5126;BME280;63008;53.112;8.896;2023-06-04T08:11:56;102265.53;;;17.56;52.23
5126;BME280;63008;53.112;8.896;2023-06-04T08:13:57;102267.63;;;17.59;50.46
5126;BME280;63008;53.112;8.896;2023-06-04T08:15:58;102267.75;;;17.63;51.12
5126;BME280;63008;53.112;8.896;2023-06-04T08:17:59;102268.56;;;17.75;51.04
5126;BME280;63008;53.112;8.896;2023-06-04T08:20:00;102265.09;;;17.78;51.97
5126;BME280;63008;53.112;8.896;2023-06-04T08:22:01;102266.50;;;17.84;52.60
5126;BME280;63008;53.112;8.896;2023-06-04T08:24:03;102266.19;;;17.98;51.92
5126;BME280;63008;53.112;8.896;2023-06-04T08:26:04;102265.16;;;18.14;52.17
5126;BME280;63008;53.112;8.896;2023-06-04T08:28:04;102264.56;;;18.21;50.39
5126;BME280;63008;53.112;8.896;2023-06-04T08:30:06;102277.44;;;18.37;51.69
5126;BME280;63008;53.112;8.896;2023-06-04T08:32:07;102272.47;;;18.43;50.99
5126;BME280;63008;53.112;8.896;2023-06-04T08:34:11;102263.66;;;18.41;50.29
5126;BME280;63008;53.112;8.896;2023-06-04T08:36:12;102270.47;;;18.31;49.87
5126;BME280;63008;53.112;8.896;2023-06-04T08:38:13;102274.09;;;18.32;49.60
5126;BME280;63008;53.112;8.896;2023-06-04T08:40:14;102264.22;;;18.46;48.84
5126;BME280;63008;53.112;8.896;2023-06-04T08:42:22;102270.16;;;18.33;50.85
5126;BME280;63008;53.112;8.896;2023-06-04T08:44:29;102261.56;;;18.49;48.08
5126;BME280;63008;53.112;8.896;2023-06-04T08:46:31;102277.00;;;18.86;49.31
5126;BME280;63008;53.112;8.896;2023-06-04T08:48:32;102276.94;;;18.71;48.13
5126;BME280;63008;53.112;8.896;2023-06-04T08:50:33;102270.16;;;18.84;50.07
5126;BME280;63008;53.112;8.896;2023-06-04T08:52:35;102274.25;;;19.14;48.65
5126;BME280;63008;53.112;8.896;2023-06-04T08:54:36;102266.47;;;19.19;47.59
5126;BME280;63008;53.112;8.896;2023-06-04T08:56:38;102265.66;;;19.46;46.45
5126;BME280;63008;53.112;8.896;2023-06-04T08:58:40;102269.41;;;19.54;45.15
5126;BME280;63008;53.112;8.896;2023-06-04T09:00:42;102272.75;;;19.59;43.92
5126;BME280;63008;53.112;8.896;2023-06-04T09:02:44;102266.31;;;19.71;43.22
5126;BME280;63008;53.112;8.896;2023-06-04T09:04:45;102269.19;;;19.74;42.82
5126;BME280;63008;53.112;8.896;2023-06-04T09:06:47;102270.00;;;19.90;43.54
5126;BME280;63008;53.112;8.896;2023-06-04T09:08:49;102269.41;;;20.12;44.03
5126;BME280;63008;53.112;8.896;2023-06-04T09:10:50;102270.47;;;20.23;43.31
5126;BME280;63008;53.112;8.896;2023-06-04T09:12:53;102274.34;;;20.19;42.78
5126;BME280;63008;53.112;8.896;2023-06-04T09:14:54;102267.69;;;19.77;44.49
5126;BME280;63008;53.112;8.896;2023-06-04T09:16:56;102269.94;;;20.18;43.93
5126;BME280;63008;53.112;8.896;2023-06-04T09:19:00;102275.47;;;20.48;44.31
5126;BME280;63008;53.112;8.896;2023-06-04T09:21:07;102268.03;;;20.37;44.52
5126;BME280;63008;53.112;8.896;2023-06-04T09:23:14;102277.63;;;20.39;42.62
5126;BME280;63008;53.112;8.896;2023-06-04T09:25:24;102279.00;;;20.45;44.13
5126;BME280;63008;53.112;8.896;2023-06-04T09:27:26;102283.75;;;20.60;42.91
5126;BME280;63008;53.112;8.896;2023-06-04T09:29:28;102283.41;;;21.38;40.20
5126;BME280;63008;53.112;8.896;2023-06-04T09:31:29;102277.31;;;21.93;37.76
5126;BME280;63008;53.112;8.896;2023-06-04T09:33:49;102279.41;;;21.99;42.05
5126;BME280;63008;53.112;8.896;2023-06-04T09:35:57;102280.53;;;21.72;39.78
5126;BME280;63008;53.112;8.896;2023-06-04T09:37:58;102282.19;;;22.22;39.11
5126;BME280;63008;53.112;8.896;2023-06-04T09:39:59;102283.34;;;22.69;40.48
5126;BME280;63008;53.112;8.896;2023-06-04T09:42:01;102286.41;;;22.86;39.02
5126;BME280;63008;53.112;8.896;2023-06-04T09:44:02;102286.47;;;23.19;36.85
5126;BME280;63008;53.112;8.896;2023-06-04T09:46:11;102293.38;;;23.98;34.15
5126;BME280;63008;53.112;8.896;2023-06-04T09:48:19;102279.56;;;23.43;37.50
5126;BME280;63008;53.112;8.896;2023-06-04T09:50:46;102289.03;;;24.08;33.80
5126;BME280;63008;53.112;8.896;2023-06-04T09:52:47;102284.91;;;23.95;35.46
5126;BME280;63008;53.112;8.896;2023-06-04T09:54:48;102282.06;;;24.38;34.24
5126;BME280;63008;53.112;8.896;2023-06-04T09:56:49;102288.06;;;23.86;34.81
5126;BME280;63008;53.112;8.896;2023-06-04T09:58:54;102284.72;;;23.77;35.35
5126;BME280;63008;53.112;8.896;2023-06-04T10:01:00;102279.91;;;24.18;34.62
5126;BME280;63008;53.112;8.896;2023-06-04T10:03:02;102277.22;;;24.35;34.40
5126;BME280;63008;53.112;8.896;2023-06-04T10:05:04;102279.97;;;24.25;35.51
5126;BME280;63008;53.112;8.896;2023-06-04T10:07:11;102282.16;;;25.13;32.82
5126;BME280;63008;53.112;8.896;2023-06-04T10:09:13;102272.91;;;24.48;33.65
5126;BME280;63008;53.112;8.896;2023-06-04T10:11:17;102279.63;;;24.33;38.99
5126;BME280;63008;53.112;8.896;2023-06-04T10:13:21;102279.94;;;23.41;33.90
5126;BME280;63008;53.112;8.896;2023-06-04T10:15:23;102275.63;;;22.36;38.02
5126;BME280;63008;53.112;8.896;2023-06-04T10:17:25;102279.72;;;23.24;37.47
5126;BME280;63008;53.112;8.896;2023-06-04T10:19:29;102274.50;;;24.45;34.54
5126;BME280;63008;53.112;8.896;2023-06-04T10:21:32;102284.44;;;24.86;34.27
5126;BME280;63008;53.112;8.896;2023-06-04T10:23:35;102276.78;;;24.87;35.24
5126;BME280;63008;53.112;8.896;2023-06-04T10:25:37;102275.31;;;25.14;34.39
5126;BME280;63008;53.112;8.896;2023-06-04T10:27:38;102274.44;;;23.52;34.23
5126;BME280;63008;53.112;8.896;2023-06-04T10:29:39;102279.94;;;23.81;34.23
5126;BME280;63008;53.112;8.896;2023-06-04T10:31:40;102269.78;;;24.56;35.95
5126;BME280;63008;53.112;8.896;2023-06-04T10:33:42;102277.94;;;25.78;30.70
5126;BME280;63008;53.112;8.896;2023-06-04T10:35:43;102281.56;;;26.80;29.79
5126;BME280;63008;53.112;8.896;2023-06-04T10:37:44;102287.44;;;27.31;28.40
5126;BME280;63008;53.112;8.896;2023-06-04T10:39:53;102284.00;;;26.57;30.22
5126;BME280;63008;53.112;8.896;2023-06-04T10:42:02;102280.41;;;26.18;33.42
5126;BME280;63008;53.112;8.896;2023-06-04T10:44:03;102282.34;;;25.79;29.87
5126;BME280;63008;53.112;8.896;2023-06-04T10:46:14;102279.34;;;25.13;31.54
5126;BME280;63008;53.112;8.896;2023-06-04T10:48:15;102279.84;;;25.43;31.68
5126;BME280;63008;53.112;8.896;2023-06-04T10:50:16;102287.25;;;26.55;28.54
5126;BME280;63008;53.112;8.896;2023-06-04T10:52:18;102278.00;;;26.06;30.47
5126;BME280;63008;53.112;8.896;2023-06-04T10:54:23;102285.13;;;25.62;31.73